Woodworth, Louisiana
Current Conditions -  °F | °C
As of 1:53 PM on Saturday 20 Dec 2014 (Local Time) from KAEX Reporting Station
Few Clouds Few Clouds  
Wind Chill: 54°   Ceiling: Unl
Heat Index: 54°   Visibility: 10mi
Dew Point: 44°   Wind: 8mph
Humidity: 69%   Direction: 350°N
Pressure: 30.15"   Gusts: NA
Location:  31.15°N, 92.5°W
Report Text: KAEX 201953Z 35007KT 10SM FEW020 12/07 A3015 RMK AO2 SLP213 T01220067
Loading
Personal Weather Stations






























Interactive Weather Map New forecast layout! Learn more

10-Day Weather Forecast

Advertisements
Track Severe Weather on mobile